sensor_id;sensor_type;location;lat;lon;timestamp;pressure;altitude;pressure_sealevel;temperature;humidity
75026;BME280;63591;50.080;8.286;2022-12-24T00:00:28;99001.34;;;12.18;68.00
75026;BME280;63591;50.080;8.286;2022-12-24T00:02:54;99000.38;;;12.19;68.06
75026;BME280;63591;50.080;8.286;2022-12-24T00:05:19;98994.28;;;12.18;67.72
75026;BME280;63591;50.080;8.286;2022-12-24T00:07:44;99001.34;;;12.18;67.88
75026;BME280;63591;50.080;8.286;2022-12-24T00:10:10;98998.56;;;12.19;67.96
75026;BME280;63591;50.080;8.286;2022-12-24T00:12:36;98992.50;;;12.19;68.02
75026;BME280;63591;50.080;8.286;2022-12-24T00:15:02;98988.03;;;12.19;67.75
75026;BME280;63591;50.080;8.286;2022-12-24T00:17:28;98989.03;;;12.18;67.78
75026;BME280;63591;50.080;8.286;2022-12-24T00:19:53;99004.81;;;12.18;67.72
75026;BME280;63591;50.080;8.286;2022-12-24T00:22:18;99005.66;;;12.19;67.96
75026;BME280;63591;50.080;8.286;2022-12-24T00:24:43;99009.06;;;12.19;67.65
75026;BME280;63591;50.080;8.286;2022-12-24T00:27:09;98996.94;;;12.18;67.60
75026;BME280;63591;50.080;8.286;2022-12-24T00:29:34;99009.25;;;12.18;67.65
75026;BME280;63591;50.080;8.286;2022-12-24T00:31:59;99022.41;;;12.18;67.61
75026;BME280;63591;50.080;8.286;2022-12-24T00:34:25;99022.41;;;12.18;67.54
75026;BME280;63591;50.080;8.286;2022-12-24T00:36:50;99021.59;;;12.17;67.60
75026;BME280;63591;50.080;8.286;2022-12-24T00:39:16;99023.22;;;12.18;67.54
75026;BME280;63591;50.080;8.286;2022-12-24T00:41:41;99025.88;;;12.18;67.60
75026;BME280;63591;50.080;8.286;2022-12-24T00:44:07;99024.25;;;12.17;67.53
75026;BME280;63591;50.080;8.286;2022-12-24T00:46:40;99029.50;;;12.17;67.51
75026;BME280;63591;50.080;8.286;2022-12-24T00:49:06;99028.50;;;12.18;67.66
75026;BME280;63591;50.080;8.286;2022-12-24T00:51:33;99025.03;;;12.18;67.58
75026;BME280;63591;50.080;8.286;2022-12-24T00:53:58;99029.50;;;12.17;67.36
75026;BME280;63591;50.080;8.286;2022-12-24T00:56:24;99033.75;;;12.18;67.84
75026;BME280;63591;50.080;8.286;2022-12-24T00:58:49;99027.66;;;12.18;67.67
75026;BME280;63591;50.080;8.286;2022-12-24T01:01:15;99028.66;;;12.17;67.69
75026;BME280;63591;50.080;8.286;2022-12-24T01:03:41;99027.03;;;12.16;67.64
75026;BME280;63591;50.080;8.286;2022-12-24T01:06:12;99032.31;;;12.16;67.72
75026;BME280;63591;50.080;8.286;2022-12-24T01:08:38;99040.03;;;12.17;67.58
75026;BME280;63591;50.080;8.286;2022-12-24T01:11:05;99039.19;;;12.17;67.52
75026;BME280;63591;50.080;8.286;2022-12-24T01:13:31;99038.38;;;12.16;67.52
75026;BME280;63591;50.080;8.286;2022-12-24T01:15:57;99045.47;;;12.16;67.62
75026;BME280;63591;50.080;8.286;2022-12-24T01:18:23;99045.47;;;12.16;67.63
75026;BME280;63591;50.080;8.286;2022-12-24T01:21:15;99059.94;;;12.11;67.56
75026;BME280;63591;50.080;8.286;2022-12-24T01:23:41;99060.41;;;12.15;67.67
75026;BME280;63591;50.080;8.286;2022-12-24T01:26:06;99071.75;;;12.16;67.49
75026;BME280;63591;50.080;8.286;2022-12-24T01:28:32;99078.81;;;12.15;67.61
75026;BME280;63591;50.080;8.286;2022-12-24T01:30:58;99075.38;;;12.15;67.48
75026;BME280;63591;50.080;8.286;2022-12-24T01:33:23;99073.56;;;12.15;67.54
75026;BME280;63591;50.080;8.286;2022-12-24T01:35:51;99078.00;;;12.15;67.37
75026;BME280;63591;50.080;8.286;2022-12-24T01:38:16;99094.44;;;12.17;67.50
75026;BME280;63591;50.080;8.286;2022-12-24T01:40:42;99096.41;;;12.15;67.44
75026;BME280;63591;50.080;8.286;2022-12-24T01:43:28;99104.31;;;12.15;67.42
75026;BME280;63591;50.080;8.286;2022-12-24T01:48:39;99104.31;;;12.15;67.37
75026;BME280;63591;50.080;8.286;2022-12-24T01:51:29;99112.38;;;12.13;67.31
75026;BME280;63591;50.080;8.286;2022-12-24T01:54:02;99130.63;;;12.15;67.42
75026;BME280;63591;50.080;8.286;2022-12-24T01:56:31;99138.50;;;12.15;67.23
75026;BME280;63591;50.080;8.286;2022-12-24T01:59:01;99136.88;;;12.13;67.28
75026;BME280;63591;50.080;8.286;2022-12-24T02:01:26;99142.97;;;12.14;67.32
75026;BME280;63591;50.080;8.286;2022-12-24T02:03:52;99139.50;;;12.13;67.55
75026;BME280;63591;50.080;8.286;2022-12-24T02:06:18;99144.75;;;12.13;67.34
75026;BME280;63591;50.080;8.286;2022-12-24T02:08:45;99149.19;;;12.13;67.33
75026;BME280;63591;50.080;8.286;2022-12-24T02:11:13;99160.56;;;12.13;67.56
75026;BME280;63591;50.080;8.286;2022-12-24T02:13:40;99156.91;;;12.15;67.29
75026;BME280;63591;50.080;8.286;2022-12-24T02:30:03;99171.91;;;12.14;67.35
75026;BME280;63591;50.080;8.286;2022-12-24T02:32:44;99165.19;;;12.11;67.53
75026;BME280;63591;50.080;8.286;2022-12-24T02:37:58;99177.50;;;12.11;67.51
75026;BME280;63591;50.080;8.286;2022-12-24T02:40:32;99177.50;;;12.11;67.59
75026;BME280;63591;50.080;8.286;2022-12-24T02:43:03;99175.72;;;12.11;67.47
75026;BME280;63591;50.080;8.286;2022-12-24T02:45:33;99170.44;;;12.11;67.51
75026;BME280;63591;50.080;8.286;2022-12-24T02:47:59;99177.50;;;12.11;67.67
75026;BME280;63591;50.080;8.286;2022-12-24T02:50:26;99185.41;;;12.11;67.61
75026;BME280;63591;50.080;8.286;2022-12-24T02:52:52;99193.28;;;12.11;67.81
75026;BME280;63591;50.080;8.286;2022-12-24T03:01:26;99201.81;;;12.13;67.60
75026;BME280;63591;50.080;8.286;2022-12-24T03:06:53;99202.81;;;12.12;67.84
75026;BME280;63591;50.080;8.286;2022-12-24T03:09:29;99202.66;;;12.13;67.72
75026;BME280;63591;50.080;8.286;2022-12-24T03:12:11;99213.34;;;12.12;67.69
75026;BME280;63591;50.080;8.286;2022-12-24T03:14:40;99211.19;;;12.16;67.64
75026;BME280;63591;50.080;8.286;2022-12-24T03:17:07;99213.84;;;12.16;67.79
75026;BME280;63591;50.080;8.286;2022-12-24T03:19:33;99219.88;;;12.16;67.64
75026;BME280;63591;50.080;8.286;2022-12-24T03:22:01;99219.88;;;12.16;67.43
75026;BME280;63591;50.080;8.286;2022-12-24T03:24:28;99222.34;;;12.18;67.54
75026;BME280;63591;50.080;8.286;2022-12-24T03:26:54;99216.13;;;12.19;67.62
75026;BME280;63591;50.080;8.286;2022-12-24T03:29:20;99221.56;;;12.17;67.81
75026;BME280;63591;50.080;8.286;2022-12-24T03:31:50;99223.34;;;12.17;67.80
75026;BME280;63591;50.080;8.286;2022-12-24T03:34:17;99225.81;;;12.18;67.75
75026;BME280;63591;50.080;8.286;2022-12-24T03:36:42;99232.72;;;12.19;67.67
75026;BME280;63591;50.080;8.286;2022-12-24T03:39:09;99241.44;;;12.20;67.57
75026;BME280;63591;50.080;8.286;2022-12-24T03:41:35;99248.50;;;12.19;67.74
75026;BME280;63591;50.080;8.286;2022-12-24T03:44:00;99259.69;;;12.21;67.65
75026;BME280;63591;50.080;8.286;2022-12-24T03:46:26;99254.59;;;12.20;67.86
75026;BME280;63591;50.080;8.286;2022-12-24T03:48:52;99257.22;;;12.20;67.86
75026;BME280;63591;50.080;8.286;2022-12-24T03:51:20;99255.44;;;12.20;67.73
75026;BME280;63591;50.080;8.286;2022-12-24T03:53:46;99263.16;;;12.22;67.71
75026;BME280;63591;50.080;8.286;2022-12-24T03:56:12;99262.31;;;12.21;67.74
75026;BME280;63591;50.080;8.286;2022-12-24T03:58:37;99267.59;;;12.21;67.65
75026;BME280;63591;50.080;8.286;2022-12-24T04:01:03;99265.94;;;12.20;67.74
75026;BME280;63591;50.080;8.286;2022-12-24T04:03:28;99273.00;;;12.20;67.86
75026;BME280;63591;50.080;8.286;2022-12-24T04:06:06;99266.13;;;12.19;67.70
75026;BME280;63591;50.080;8.286;2022-12-24T04:08:32;99274.47;;;12.22;68.02
75026;BME280;63591;50.080;8.286;2022-12-24T04:10:57;99273.00;;;12.20;68.02
75026;BME280;63591;50.080;8.286;2022-12-24T04:13:22;99271.03;;;12.22;67.80
75026;BME280;63591;50.080;8.286;2022-12-24T04:16:05;99274.97;;;12.18;67.72
75026;BME280;63591;50.080;8.286;2022-12-24T04:18:31;99284.03;;;12.23;67.87
75026;BME280;63591;50.080;8.286;2022-12-24T04:20:56;99278.78;;;12.23;67.99
75026;BME280;63591;50.080;8.286;2022-12-24T04:23:22;99277.94;;;12.23;67.96
75026;BME280;63591;50.080;8.286;2022-12-24T04:25:48;99281.56;;;12.22;67.97
75026;BME280;63591;50.080;8.286;2022-12-24T04:28:13;99282.38;;;12.22;68.05
75026;BME280;63591;50.080;8.286;2022-12-24T04:30:39;99284.19;;;12.22;68.00
75026;BME280;63591;50.080;8.286;2022-12-24T04:33:05;99285.00;;;12.22;68.06
75026;BME280;63591;50.080;8.286;2022-12-24T04:35:30;99284.84;;;12.24;67.91
75026;BME280;63591;50.080;8.286;2022-12-24T04:37:56;99283.19;;;12.23;67.95
75026;BME280;63591;50.080;8.286;2022-12-24T04:40:21;99285.66;;;12.24;68.22
75026;BME280;63591;50.080;8.286;2022-12-24T04:42:46;99283.84;;;12.25;68.03
75026;BME280;63591;50.080;8.286;2022-12-24T04:45:11;99273.31;;;12.25;67.90
75026;BME280;63591;50.080;8.286;2022-12-24T04:47:37;99282.88;;;12.26;68.02
75026;BME280;63591;50.080;8.286;2022-12-24T04:50:02;99301.44;;;12.24;67.91
75026;BME280;63591;50.080;8.286;2022-12-24T04:52:28;99301.28;;;12.26;67.92
75026;BME280;63591;50.080;8.286;2022-12-24T04:54:53;99301.28;;;12.26;67.78
75026;BME280;63591;50.080;8.286;2022-12-24T04:57:18;99306.56;;;12.26;67.96
75026;BME280;63591;50.080;8.286;2022-12-24T04:59:43;99301.28;;;12.26;67.62
75026;BME280;63591;50.080;8.286;2022-12-24T05:02:09;99300.28;;;12.27;67.91
75026;BME280;63591;50.080;8.286;2022-12-24T05:04:34;99282.88;;;12.26;67.92
75026;BME280;63591;50.080;8.286;2022-12-24T05:07:00;99289.75;;;12.27;67.93
75026;BME280;63591;50.080;8.286;2022-12-24T05:09:25;99299.47;;;12.26;67.83
75026;BME280;63591;50.080;8.286;2022-12-24T05:11:50;99294.19;;;12.26;67.69
75026;BME280;63591;50.080;8.286;2022-12-24T05:14:15;99295.19;;;12.25;67.90
75026;BME280;63591;50.080;8.286;2022-12-24T05:16:41;99296.03;;;12.26;67.66
75026;BME280;63591;50.080;8.286;2022-12-24T05:19:08;99310.97;;;12.25;67.87
75026;BME280;63591;50.080;8.286;2022-12-24T05:21:33;99304.09;;;12.24;67.86
75026;BME280;63591;50.080;8.286;2022-12-24T05:23:58;99301.44;;;12.24;67.83
75026;BME280;63591;50.080;8.286;2022-12-24T05:26:49;99287.47;;;12.24;67.88
75026;BME280;63591;50.080;8.286;2022-12-24T05:29:15;99299.63;;;12.25;67.89
75026;BME280;63591;50.080;8.286;2022-12-24T05:31:41;99292.56;;;12.25;67.72
75026;BME280;63591;50.080;8.286;2022-12-24T05:34:08;99289.09;;;12.25;67.75
75026;BME280;63591;50.080;8.286;2022-12-24T05:36:34;99300.47;;;12.25;67.75
75026;BME280;63591;50.080;8.286;2022-12-24T05:38:59;99293.56;;;12.24;67.77
75026;BME280;63591;50.080;8.286;2022-12-24T05:41:25;99293.56;;;12.24;67.71
75026;BME280;63591;50.080;8.286;2022-12-24T05:43:50;99297.19;;;12.23;67.82
75026;BME280;63591;50.080;8.286;2022-12-24T05:46:18;99316.41;;;12.24;67.81
75026;BME280;63591;50.080;8.286;2022-12-24T05:48:44;99323.31;;;12.25;67.63
75026;BME280;63591;50.080;8.286;2022-12-24T05:51:12;99325.31;;;12.23;67.61
75026;BME280;63591;50.080;8.286;2022-12-24T05:53:38;99326.94;;;12.24;67.80
75026;BME280;63591;50.080;8.286;2022-12-24T05:56:15;99321.03;;;12.22;67.72
75026;BME280;63591;50.080;8.286;2022-12-24T05:58:42;99325.94;;;12.25;67.79
75026;BME280;63591;50.080;8.286;2022-12-24T06:01:09;99321.66;;;12.24;67.69
75026;BME280;63591;50.080;8.286;2022-12-24T06:03:34;99324.31;;;12.24;67.82
75026;BME280;63591;50.080;8.286;2022-12-24T06:06:01;99320.88;;;12.23;67.80
75026;BME280;63591;50.080;8.286;2022-12-24T06:08:27;99326.13;;;12.23;67.75
75026;BME280;63591;50.080;8.286;2022-12-24T06:10:57;99333.19;;;12.23;67.84
75026;BME280;63591;50.080;8.286;2022-12-24T06:13:24;99325.13;;;12.24;67.71
75026;BME280;63591;50.080;8.286;2022-12-24T06:15:53;99329.56;;;12.24;67.77
75026;BME280;63591;50.080;8.286;2022-12-24T06:18:18;99334.84;;;12.24;67.78
75026;BME280;63591;50.080;8.286;2022-12-24T06:20:43;99334.84;;;12.24;67.82
75026;BME280;63591;50.080;8.286;2022-12-24T06:23:09;99340.09;;;12.24;67.81
75026;BME280;63591;50.080;8.286;2022-12-24T06:25:34;99340.09;;;12.24;67.92
75026;BME280;63591;50.080;8.286;2022-12-24T06:27:59;99338.28;;;12.24;67.72
75026;BME280;63591;50.080;8.286;2022-12-24T06:30:24;99334.03;;;12.23;67.75
75026;BME280;63591;50.080;8.286;2022-12-24T06:32:50;99344.56;;;12.23;67.91
75026;BME280;63591;50.080;8.286;2022-12-24T06:35:15;99344.56;;;12.23;67.92
75026;BME280;63591;50.080;8.286;2022-12-24T06:37:40;99355.06;;;12.23;67.89
75026;BME280;63591;50.080;8.286;2022-12-24T06:40:06;99348.97;;;12.23;67.76
75026;BME280;63591;50.080;8.286;2022-12-24T06:42:31;99353.25;;;12.24;67.81
75026;BME280;63591;50.080;8.286;2022-12-24T06:44:57;99352.44;;;12.23;67.84
75026;BME280;63591;50.080;8.286;2022-12-24T06:47:22;99355.06;;;12.23;67.77
75026;BME280;63591;50.080;8.286;2022-12-24T06:49:47;99359.34;;;12.24;67.82
75026;BME280;63591;50.080;8.286;2022-12-24T06:52:13;99360.34;;;12.23;67.82
75026;BME280;63591;50.080;8.286;2022-12-24T06:54:38;99355.88;;;12.24;67.92
75026;BME280;63591;50.080;8.286;2022-12-24T06:57:04;99359.50;;;12.23;67.92
75026;BME280;63591;50.080;8.286;2022-12-24T06:59:30;99375.28;;;12.23;67.95
75026;BME280;63591;50.080;8.286;2022-12-24T07:01:56;99366.56;;;12.22;67.80
75026;BME280;63591;50.080;8.286;2022-12-24T07:04:21;99370.88;;;12.23;68.08
75026;BME280;63591;50.080;8.286;2022-12-24T07:06:46;99376.94;;;12.24;67.88
75026;BME280;63591;50.080;8.286;2022-12-24T07:09:12;99374.31;;;12.24;67.91
75026;BME280;63591;50.080;8.286;2022-12-24T07:11:38;99371.66;;;12.24;67.80
75026;BME280;63591;50.080;8.286;2022-12-24T07:14:04;99385.50;;;12.26;67.72
75026;BME280;63591;50.080;8.286;2022-12-24T07:16:29;99388.28;;;12.24;67.93
75026;BME280;63591;50.080;8.286;2022-12-24T07:18:54;99391.91;;;12.23;68.07
75026;BME280;63591;50.080;8.286;2022-12-24T07:21:19;99396.19;;;12.24;67.77
75026;BME280;63591;50.080;8.286;2022-12-24T07:23:45;99394.34;;;12.25;67.85
75026;BME280;63591;50.080;8.286;2022-12-24T07:26:10;99396.19;;;12.24;67.85
75026;BME280;63591;50.080;8.286;2022-12-24T07:28:35;99405.06;;;12.23;67.77
75026;BME280;63591;50.080;8.286;2022-12-24T07:31:01;99406.03;;;12.22;67.52
75026;BME280;63591;50.080;8.286;2022-12-24T07:33:27;99410.34;;;12.23;67.83
75026;BME280;63591;50.080;8.286;2022-12-24T07:35:58;99413.28;;;12.20;67.87
75026;BME280;63591;50.080;8.286;2022-12-24T07:38:24;99426.13;;;12.23;67.89
75026;BME280;63591;50.080;8.286;2022-12-24T07:40:49;99419.03;;;12.24;67.65
75026;BME280;63591;50.080;8.286;2022-12-24T07:43:14;99424.28;;;12.24;67.87
75026;BME280;63591;50.080;8.286;2022-12-24T07:45:39;99425.28;;;12.23;67.76
75026;BME280;63591;50.080;8.286;2022-12-24T07:48:05;99424.28;;;12.24;68.01
75026;BME280;63591;50.080;8.286;2022-12-24T07:50:30;99432.34;;;12.22;67.83
75026;BME280;63591;50.080;8.286;2022-12-24T07:52:55;99426.13;;;12.23;67.99
75026;BME280;63591;50.080;8.286;2022-12-24T07:55:21;99420.88;;;12.23;67.94
75026;BME280;63591;50.080;8.286;2022-12-24T07:57:46;99440.09;;;12.24;67.77
75026;BME280;63591;50.080;8.286;2022-12-24T08:00:11;99439.28;;;12.23;67.96
75026;BME280;63591;50.080;8.286;2022-12-24T08:02:37;99448.81;;;12.24;68.14
75026;BME280;63591;50.080;8.286;2022-12-24T08:05:03;99449.63;;;12.25;67.91
75026;BME280;63591;50.080;8.286;2022-12-24T08:07:28;99453.09;;;12.25;67.85
75026;BME280;63591;50.080;8.286;2022-12-24T08:09:53;99466.25;;;12.25;67.62
75026;BME280;63591;50.080;8.286;2022-12-24T08:12:19;99466.41;;;12.24;67.87
75026;BME280;63591;50.080;8.286;2022-12-24T08:14:44;99464.59;;;12.24;68.00
75026;BME280;63591;50.080;8.286;2022-12-24T08:17:09;99472.50;;;12.24;67.97
75026;BME280;63591;50.080;8.286;2022-12-24T08:19:35;99483.19;;;12.23;68.40
75026;BME280;63591;50.080;8.286;2022-12-24T08:22:00;99470.03;;;12.23;67.97
75026;BME280;63591;50.080;8.286;2022-12-24T08:24:25;99468.38;;;12.22;68.11
75026;BME280;63591;50.080;8.286;2022-12-24T08:26:50;99472.66;;;12.23;68.07
75026;BME280;63591;50.080;8.286;2022-12-24T08:29:16;99469.34;;;12.21;68.13
75026;BME280;63591;50.080;8.286;2022-12-24T08:31:41;99469.34;;;12.21;68.20
75026;BME280;63591;50.080;8.286;2022-12-24T08:34:06;99476.28;;;12.22;68.15
75026;BME280;63591;50.080;8.286;2022-12-24T08:36:33;99481.53;;;12.22;68.18
75026;BME280;63591;50.080;8.286;2022-12-24T08:38:58;99492.06;;;12.22;68.16
75026;BME280;63591;50.080;8.286;2022-12-24T08:41:27;99485.81;;;12.23;68.46
75026;BME280;63591;50.080;8.286;2022-12-24T08:43:53;99491.91;;;12.23;68.38
75026;BME280;63591;50.080;8.286;2022-12-24T08:46:18;99501.59;;;12.23;68.21
75026;BME280;63591;50.080;8.286;2022-12-24T08:48:43;99498.81;;;12.24;68.36
75026;BME280;63591;50.080;8.286;2022-12-24T08:51:10;99503.25;;;12.24;68.37
75026;BME280;63591;50.080;8.286;2022-12-24T08:53:36;99505.06;;;12.23;68.37
75026;BME280;63591;50.080;8.286;2022-12-24T08:56:03;99509.50;;;12.23;68.60
75026;BME280;63591;50.080;8.286;2022-12-24T08:58:29;99506.88;;;12.23;68.38
75026;BME280;63591;50.080;8.286;2022-12-24T09:00:54;99515.59;;;12.23;68.44
75026;BME280;63591;50.080;8.286;2022-12-24T09:03:20;99527.75;;;12.24;68.39
75026;BME280;63591;50.080;8.286;2022-12-24T09:05:45;99517.38;;;12.23;68.62
75026;BME280;63591;50.080;8.286;2022-12-24T09:08:10;99516.41;;;12.24;68.38
75026;BME280;63591;50.080;8.286;2022-12-24T09:10:36;99520.03;;;12.23;68.42
75026;BME280;63591;50.080;8.286;2022-12-24T09:13:01;99526.94;;;12.24;68.42
75026;BME280;63591;50.080;8.286;2022-12-24T09:15:26;99528.75;;;12.23;68.70
75026;BME280;63591;50.080;8.286;2022-12-24T09:17:51;99529.56;;;12.24;68.56
75026;BME280;63591;50.080;8.286;2022-12-24T09:20:17;99534.81;;;12.24;68.49
75026;BME280;63591;50.080;8.286;2022-12-24T09:22:42;99540.06;;;12.24;68.64
75026;BME280;63591;50.080;8.286;2022-12-24T09:25:08;99539.91;;;12.25;68.60
75026;BME280;63591;50.080;8.286;2022-12-24T09:27:35;99532.19;;;12.24;68.42
75026;BME280;63591;50.080;8.286;2022-12-24T09:30:00;99534.00;;;12.23;68.83
75026;BME280;63591;50.080;8.286;2022-12-24T09:32:26;99540.06;;;12.24;68.64
75026;BME280;63591;50.080;8.286;2022-12-24T09:34:51;99556.03;;;12.22;68.82
75026;BME280;63591;50.080;8.286;2022-12-24T09:37:16;99550.75;;;12.22;68.62
75026;BME280;63591;50.080;8.286;2022-12-24T09:39:42;99557.84;;;12.22;68.75
75026;BME280;63591;50.080;8.286;2022-12-24T09:42:33;99553.72;;;12.19;68.73
75026;BME280;63591;50.080;8.286;2022-12-24T09:45:21;99567.22;;;12.24;68.62
75026;BME280;63591;50.080;8.286;2022-12-24T09:50:56;99570.19;;;12.21;68.68
75026;BME280;63591;50.080;8.286;2022-12-24T09:53:47;99574.13;;;12.17;68.58
75026;BME280;63591;50.080;8.286;2022-12-24T09:56:22;99571.34;;;12.19;68.72
75026;BME280;63591;50.080;8.286;2022-12-24T10:01:24;99565.75;;;12.22;68.87
75026;BME280;63591;50.080;8.286;2022-12-24T10:03:49;99578.91;;;12.22;68.83
75026;BME280;63591;50.080;8.286;2022-12-24T10:06:22;99586.66;;;12.23;68.77
75026;BME280;63591;50.080;8.286;2022-12-24T10:11:30;99592.72;;;12.24;68.92
75026;BME280;63591;50.080;8.286;2022-12-24T10:14:33;99585.66;;;12.24;68.65
75026;BME280;63591;50.080;8.286;2022-12-24T10:17:36;99597.97;;;12.24;68.73
75026;BME280;63591;50.080;8.286;2022-12-24T10:28:51;99587.13;;;12.27;68.96
75026;BME280;63591;50.080;8.286;2022-12-24T10:31:30;99593.38;;;12.26;68.86
75026;BME280;63591;50.080;8.286;2022-12-24T10:34:10;99590.75;;;12.26;69.00
75026;BME280;63591;50.080;8.286;2022-12-24T10:36:37;99594.88;;;12.29;69.04
75026;BME280;63591;50.080;8.286;2022-12-24T10:39:02;99594.19;;;12.26;69.15
75026;BME280;63591;50.080;8.286;2022-12-24T10:41:28;99601.13;;;12.28;69.07
75026;BME280;63591;50.080;8.286;2022-12-24T10:43:54;99595.03;;;12.27;69.17
75026;BME280;63591;50.080;8.286;2022-12-24T10:46:35;99598.66;;;12.26;69.29
75026;BME280;63591;50.080;8.286;2022-12-24T10:49:10;99594.03;;;12.28;69.24
75026;BME280;63591;50.080;8.286;2022-12-24T10:54:12;99598.50;;;12.28;69.16
75026;BME280;63591;50.080;8.286;2022-12-24T10:56:46;99597.66;;;12.27;68.98
75026;BME280;63591;50.080;8.286;2022-12-24T10:59:51;99596.97;;;12.25;69.32
75026;BME280;63591;50.080;8.286;2022-12-24T11:02:36;99602.09;;;12.26;69.39
75026;BME280;63591;50.080;8.286;2022-12-24T11:05:09;99604.41;;;12.30;69.44
75026;BME280;63591;50.080;8.286;2022-12-24T11:07:58;99604.56;;;12.28;69.41
75026;BME280;63591;50.080;8.286;2022-12-24T11:10:24;99607.88;;;12.30;69.35
75026;BME280;63591;50.080;8.286;2022-12-24T11:12:49;99610.66;;;12.29;69.24
75026;BME280;63591;50.080;8.286;2022-12-24T11:15:17;99599.28;;;12.28;69.43
75026;BME280;63591;50.080;8.286;2022-12-24T11:17:59;99596.97;;;12.25;69.42
75026;BME280;63591;50.080;8.286;2022-12-24T11:20:29;99611.66;;;12.28;69.38
75026;BME280;63591;50.080;8.286;2022-12-24T11:22:56;99622.00;;;12.29;69.40
75026;BME280;63591;50.080;8.286;2022-12-24T11:25:27;99612.59;;;12.26;69.42
75026;BME280;63591;50.080;8.286;2022-12-24T11:27:54;99607.34;;;12.26;69.48
75026;BME280;63591;50.080;8.286;2022-12-24T11:33:15;99608.50;;;12.24;69.56
75026;BME280;63591;50.080;8.286;2022-12-24T11:35:45;99606.38;;;12.28;69.50
75026;BME280;63591;50.080;8.286;2022-12-24T11:38:18;99608.19;;;12.27;69.47
75026;BME280;63591;50.080;8.286;2022-12-24T11:40:47;99609.00;;;12.28;69.64
75026;BME280;63591;50.080;8.286;2022-12-24T11:43:15;99605.56;;;12.27;69.67
75026;BME280;63591;50.080;8.286;2022-12-24T11:45:48;99602.91;;;12.27;69.59
75026;BME280;63591;50.080;8.286;2022-12-24T11:51:22;99604.06;;;12.24;69.76
75026;BME280;63591;50.080;8.286;2022-12-24T11:54:01;99601.75;;;12.30;69.53
75026;BME280;63591;50.080;8.286;2022-12-24T11:56:35;99595.69;;;12.29;69.73
75026;BME280;63591;50.080;8.286;2022-12-24T11:59:08;99599.28;;;12.28;69.74
75026;BME280;63591;50.080;8.286;2022-12-24T12:01:42;99597.34;;;12.30;69.61
75026;BME280;63591;50.080;8.286;2022-12-24T12:04:13;99591.25;;;12.30;69.94
75026;BME280;63591;50.080;8.286;2022-12-24T12:06:48;99589.59;;;12.29;69.90
75026;BME280;63591;50.080;8.286;2022-12-24T12:09:24;99600.13;;;12.29;69.81
75026;BME280;63591;50.080;8.286;2022-12-24T12:11:55;99598.16;;;12.31;70.00
75026;BME280;63591;50.080;8.286;2022-12-24T12:14:37;99595.69;;;12.29;69.79
75026;BME280;63591;50.080;8.286;2022-12-24T12:17:39;99605.22;;;12.30;69.89
75026;BME280;63591;50.080;8.286;2022-12-24T12:20:12;99601.44;;;12.33;69.77
75026;BME280;63591;50.080;8.286;2022-12-24T12:25:54;99594.88;;;12.29;69.87
75026;BME280;63591;50.080;8.286;2022-12-24T12:28:29;99599.81;;;12.32;69.74
75026;BME280;63591;50.080;8.286;2022-12-24T12:33:46;99595.84;;;12.28;69.96
75026;BME280;63591;50.080;8.286;2022-12-24T12:36:17;99605.22;;;12.30;69.92
75026;BME280;63591;50.080;8.286;2022-12-24T12:38:45;99605.91;;;12.32;69.92
75026;BME280;63591;50.080;8.286;2022-12-24T12:50:02;99610.66;;;12.29;69.86
75026;BME280;63591;50.080;8.286;2022-12-24T12:55:46;99624.16;;;12.34;69.77
75026;BME280;63591;50.080;8.286;2022-12-24T12:58:26;99621.03;;;12.30;69.79
75026;BME280;63591;50.080;8.286;2022-12-24T13:01:44;99617.25;;;12.33;69.97
75026;BME280;63591;50.080;8.286;2022-12-24T13:04:01;99620.03;;;12.31;69.66
75026;BME280;63591;50.080;8.286;2022-12-24T13:15:37;99623.66;;;12.30;69.74
75026;BME280;63591;50.080;8.286;2022-12-24T13:21:33;99628.59;;;12.33;69.77
75026;BME280;63591;50.080;8.286;2022-12-24T13:27:10;99642.06;;;12.30;69.87
75026;BME280;63591;50.080;8.286;2022-12-24T13:29:40;99628.59;;;12.33;70.05
75026;BME280;63591;50.080;8.286;2022-12-24T13:35:25;99626.97;;;12.32;70.08
75026;BME280;63591;50.080;8.286;2022-12-24T13:37:50;99626.66;;;12.35;69.95
75026;BME280;63591;50.080;8.286;2022-12-24T13:40:21;99631.91;;;12.35;69.95
75026;BME280;63591;50.080;8.286;2022-12-24T13:48:17;99633.03;;;12.33;70.11
75026;BME280;63591;50.080;8.286;2022-12-24T13:50:50;99631.06;;;12.35;70.17
75026;BME280;63591;50.080;8.286;2022-12-24T13:53:41;99635.50;;;12.34;69.94
75026;BME280;63591;50.080;8.286;2022-12-24T13:58:52;99649.66;;;12.33;69.84
75026;BME280;63591;50.080;8.286;2022-12-24T14:01:21;99639.81;;;12.35;70.05
75026;BME280;63591;50.080;8.286;2022-12-24T14:03:58;99648.50;;;12.36;69.99
75026;BME280;63591;50.080;8.286;2022-12-24T14:06:26;99643.25;;;12.36;69.86
75026;BME280;63591;50.080;8.286;2022-12-24T14:08:55;99646.88;;;12.35;70.13
75026;BME280;63591;50.080;8.286;2022-12-24T14:11:24;99646.72;;;12.36;69.98
75026;BME280;63591;50.080;8.286;2022-12-24T14:13:52;99653.78;;;12.36;70.05
75026;BME280;63591;50.080;8.286;2022-12-24T14:16:24;99649.34;;;12.36;70.12
75026;BME280;63591;50.080;8.286;2022-12-24T14:19:15;99659.88;;;12.36;69.85
75026;BME280;63591;50.080;8.286;2022-12-24T14:22:02;99659.19;;;12.34;69.93
75026;BME280;63591;50.080;8.286;2022-12-24T14:24:34;99661.50;;;12.37;69.95
75026;BME280;63591;50.080;8.286;2022-12-24T14:27:18;99657.41;;;12.35;70.13
75026;BME280;63591;50.080;8.286;2022-12-24T14:30:05;99662.81;;;12.33;69.90
75026;BME280;63591;50.080;8.286;2022-12-24T14:32:36;99659.88;;;12.36;69.85
75026;BME280;63591;50.080;8.286;2022-12-24T14:35:29;99656.72;;;12.33;70.02
75026;BME280;63591;50.080;8.286;2022-12-24T14:38:00;99651.97;;;12.36;70.17
75026;BME280;63591;50.080;8.286;2022-12-24T14:40:29;99660.66;;;12.37;69.98
75026;BME280;63591;50.080;8.286;2022-12-24T14:45:50;99652.97;;;12.35;69.55
75026;BME280;63591;50.080;8.286;2022-12-24T14:48:29;99658.38;;;12.34;69.81
75026;BME280;63591;50.080;8.286;2022-12-24T14:54:30;99663.50;;;12.35;69.99